createdAt,value
2023-05-19T00:07:32.711Z,0.0000
2023-05-19T00:09:33.672Z,0.0000
2023-05-19T00:10:34.787Z,0.0000
2023-05-19T00:13:37.322Z,0.0000
2023-05-19T00:20:40.060Z,0.0000
2023-05-19T00:21:41.099Z,0.0000
2023-05-19T00:23:42.369Z,0.0000
2023-05-19T00:24:42.912Z,0.0000
2023-05-19T00:25:43.599Z,0.0000
2023-05-19T00:26:44.749Z,0.0000
2023-05-19T00:28:45.662Z,0.0000
2023-05-19T00:29:46.719Z,0.0000
2023-05-19T00:34:49.368Z,0.0000
2023-05-19T00:36:50.043Z,0.0000
2023-05-19T00:37:50.088Z,0.0000
2023-05-19T00:38:50.956Z,0.0000
2023-05-19T00:39:51.941Z,0.0000
2023-05-19T00:40:52.523Z,0.0000
2023-05-19T00:41:52.840Z,0.0000
2023-05-19T00:42:53.300Z,0.0000
2023-05-19T00:43:54.149Z,0.0000
2023-05-19T00:45:54.522Z,0.0000
2023-05-19T00:46:54.772Z,0.0000
2023-05-19T00:48:53.054Z,0.0000
2023-05-19T00:49:53.390Z,0.0000
2023-05-19T00:50:54.376Z,0.0000
2023-05-19T00:51:55.089Z,0.0000
2023-05-19T00:52:57.026Z,0.0000
2023-05-19T01:00:00.524Z,0.0000
2023-05-19T01:05:04.142Z,0.0000
2023-05-19T01:06:04.704Z,0.0000
2023-05-19T01:08:04.549Z,0.0000
2023-05-19T01:10:05.566Z,0.0000
2023-05-19T01:11:06.125Z,0.0000
2023-05-19T01:18:09.122Z,0.0000
2023-05-19T01:25:14.664Z,0.0000
2023-05-19T01:27:15.383Z,0.0000
2023-05-19T01:29:16.427Z,0.0000
2023-05-19T01:37:21.055Z,0.0000
2023-05-19T01:40:21.560Z,0.0000
2023-05-19T01:41:22.479Z,0.0000
2023-05-19T01:42:23.270Z,0.0000
2023-05-19T01:43:23.661Z,0.0000
2023-05-19T01:45:26.309Z,0.0000
2023-05-19T01:47:27.944Z,0.0000
2023-05-19T01:58:35.410Z,0.0000
2023-05-19T01:59:36.504Z,0.0000
2023-05-19T02:00:37.569Z,0.0000
2023-05-19T02:01:38.409Z,0.0000
2023-05-19T02:08:42.002Z,0.0000
2023-05-19T02:10:43.378Z,0.0000
2023-05-19T02:11:44.520Z,0.0000
2023-05-19T02:12:44.664Z,0.0000
2023-05-19T02:13:45.684Z,0.0000
2023-05-19T02:14:46.036Z,0.0000
2023-05-19T02:15:49.077Z,0.0000
2023-05-19T02:16:50.410Z,0.0000
2023-05-19T02:17:51.115Z,0.0000
2023-05-19T02:18:51.537Z,0.0000
2023-05-19T02:19:51.531Z,0.0000
2023-05-19T02:20:52.442Z,0.0000
2023-05-19T02:21:52.988Z,0.0000
2023-05-19T02:22:53.936Z,0.0000
2023-05-19T02:23:54.592Z,0.0000
2023-05-19T02:24:54.639Z,0.0000
2023-05-19T02:25:55.484Z,0.0000
2023-05-19T02:26:55.978Z,0.0000
2023-05-19T02:27:57.350Z,0.0000
2023-05-19T02:28:58.107Z,0.0000
2023-05-19T02:29:58.102Z,0.0000
2023-05-19T02:31:00.069Z,0.0000
2023-05-19T02:32:00.906Z,0.0000
2023-05-19T02:39:03.809Z,0.0000
2023-05-19T02:42:06.234Z,0.0000
2023-05-19T02:44:07.122Z,0.0000
2023-05-19T02:53:19.514Z,0.0000
2023-05-19T02:54:19.723Z,0.0000
2023-05-19T02:55:21.066Z,0.0000
2023-05-19T02:56:22.181Z,0.0000
2023-05-19T02:57:24.166Z,0.0000
2023-05-19T02:58:24.300Z,0.0000
2023-05-19T02:59:25.708Z,0.0000
2023-05-19T03:00:24.937Z,0.0000
2023-05-19T03:01:25.667Z,0.0000
2023-05-19T03:02:26.006Z,0.0000
2023-05-19T03:03:26.651Z,0.0000
2023-05-19T03:04:26.682Z,0.0000
2023-05-19T03:05:28.070Z,0.0000
2023-05-19T03:06:29.066Z,0.0000
2023-05-19T03:11:32.120Z,0.0000
2023-05-19T03:12:32.565Z,0.0000
2023-05-19T03:13:33.489Z,0.0000
2023-05-19T03:15:34.080Z,0.0000
2023-05-19T03:16:35.248Z,0.0000
2023-05-19T03:17:35.593Z,0.0000
2023-05-19T03:18:35.699Z,0.0000
2023-05-19T03:19:37.109Z,0.0000
2023-05-19T03:20:40.922Z,0.0000
2023-05-19T03:21:39.976Z,0.0000
2023-05-19T03:25:42.301Z,0.0000
2023-05-19T03:27:43.017Z,0.0000
2023-05-19T03:28:43.569Z,0.0000
2023-05-19T03:30:43.371Z,0.0000
2023-05-19T03:31:43.492Z,0.0000
2023-05-19T03:32:43.768Z,0.0000
2023-05-19T03:33:44.557Z,0.0000
2023-05-19T03:35:45.741Z,4.8580
2023-05-19T03:36:46.068Z,5.6250
2023-05-19T03:37:46.692Z,5.6250
2023-05-19T03:38:47.801Z,5.6250
2023-05-19T03:44:50.264Z,11.2500
2023-05-19T03:45:50.926Z,11.2500
2023-05-19T03:46:52.717Z,15.4688
2023-05-19T03:47:53.412Z,16.8750
2023-05-19T03:48:54.979Z,16.8750
2023-05-19T03:53:55.600Z,28.1250
2023-05-19T03:54:57.020Z,31.5262
2023-05-19T04:04:01.936Z,58.0814
2023-05-19T04:09:04.212Z,76.1932
2023-05-19T04:10:04.570Z,78.7500
2023-05-19T04:12:07.721Z,84.3750
2023-05-19T04:14:09.666Z,91.2228
2023-05-19T04:15:09.802Z,97.1591
2023-05-19T04:16:11.425Z,102.8750
2023-05-19T04:18:11.872Z,112.5000
2023-05-19T04:20:13.182Z,122.6250
2023-05-19T04:21:13.864Z,129.1134
2023-05-19T04:22:15.057Z,133.2102
2023-05-19T04:23:15.814Z,137.8125
2023-05-19T04:24:17.327Z,142.6250
2023-05-19T04:25:17.490Z,148.2122
2023-05-19T04:26:17.964Z,153.8372
2023-05-19T04:27:19.163Z,157.6308
2023-05-19T04:30:21.929Z,167.3438
2023-05-19T04:31:22.051Z,170.1562
2023-05-19T04:32:22.851Z,171.8182
2023-05-19T04:33:24.270Z,174.7585
2023-05-19T04:34:25.318Z,180.3750
2023-05-19T04:38:26.847Z,191.8892
2023-05-19T04:39:27.489Z,198.5756
2023-05-19T04:40:27.806Z,202.6278
2023-05-19T04:41:28.759Z,203.1250
2023-05-19T04:42:29.883Z,202.5000
2023-05-19T04:43:30.160Z,204.5930
2023-05-19T04:44:31.559Z,212.8551
2023-05-19T04:45:31.738Z,213.8778
2023-05-19T04:47:34.627Z,220.8750
2023-05-19T04:53:39.282Z,258.7500
2023-05-19T04:54:39.511Z,258.8808
2023-05-19T04:55:39.873Z,255.2983
2023-05-19T04:56:40.443Z,250.3779
2023-05-19T05:04:43.595Z,275.3634
2023-05-19T05:05:45.365Z,302.8551
2023-05-19T05:07:45.593Z,321.6477
2023-05-19T05:08:46.688Z,338.6506
2023-05-19T05:09:47.093Z,340.2471
2023-05-19T05:10:47.706Z,340.1163
2023-05-19T05:22:54.908Z,421.8750
2023-05-19T05:23:56.150Z,403.8494
2023-05-19T05:24:56.251Z,379.4913
2023-05-19T05:25:56.650Z,373.2122
2023-05-19T05:28:59.807Z,380.0710
2023-05-19T05:30:00.298Z,367.9018
2023-05-19T05:31:00.518Z,351.3663
2023-05-19T05:32:00.927Z,336.0938
2023-05-19T05:33:01.270Z,323.6932
2023-05-19T05:34:02.333Z,308.0669
2023-05-19T05:35:03.404Z,293.5227
2023-05-19T05:36:04.882Z,287.2500
2023-05-19T05:37:06.278Z,282.1449
2023-05-19T05:38:07.047Z,279.8438
2023-05-19T05:39:08.397Z,262.2820
2023-05-19T05:40:08.807Z,243.6648
2023-05-19T05:41:09.856Z,242.5142
2023-05-19T05:42:11.063Z,235.7500
2023-05-19T05:43:12.534Z,225.5114
2023-05-19T05:44:12.767Z,228.9631
2023-05-19T05:45:13.212Z,230.6250
2023-05-19T05:56:20.348Z,207.8804
2023-05-19T05:57:20.813Z,214.0116
2023-05-19T05:58:21.726Z,218.3285
2023-05-19T05:59:22.713Z,209.3023
2023-05-19T06:01:22.168Z,198.9205
2023-05-19T06:02:23.786Z,192.5893
2023-05-19T06:03:24.719Z,185.7528
2023-05-19T06:04:26.005Z,185.7589
2023-05-19T06:05:26.446Z,191.5116
2023-05-19T06:06:27.486Z,197.2500
2023-05-19T06:07:28.007Z,204.2898
2023-05-19T06:11:07.230Z,193.4135
2023-05-19T06:12:08.276Z,196.8750
2023-05-19T06:13:08.890Z,200.3267
2023-05-19T06:14:09.516Z,202.1165
2023-05-19T06:15:09.782Z,199.3605
2023-05-19T06:17:12.830Z,202.5000
2023-05-19T06:18:13.850Z,200.2762
2023-05-19T06:23:18.183Z,185.6250
2023-05-19T06:24:18.853Z,185.6250
2023-05-19T06:25:18.878Z,186.0085
2023-05-19T06:29:21.377Z,194.1903
2023-05-19T06:30:21.836Z,196.8750
2023-05-19T06:31:22.930Z,197.0028
2023-05-19T06:32:22.919Z,201.8608
2023-05-19T06:33:25.556Z,198.7926
2023-05-19T06:34:25.681Z,183.5671
2023-05-19T06:39:30.351Z,196.8750
2023-05-19T06:40:31.498Z,195.6977
2023-05-19T06:42:32.022Z,185.6250
2023-05-19T06:43:32.396Z,191.0000
2023-05-19T06:44:33.477Z,196.7472
2023-05-19T06:45:34.216Z,195.4361
2023-05-19T06:46:34.346Z,185.6250
2023-05-19T06:47:35.498Z,178.9773
2023-05-19T06:48:35.784Z,175.2188
2023-05-19T06:49:37.761Z,180.2557
2023-05-19T06:54:39.136Z,205.3125
2023-05-19T06:55:54.356Z,231.2364
2023-05-19T06:56:40.725Z,242.4831
2023-05-19T06:58:43.640Z,233.1562
2023-05-19T06:59:43.934Z,230.6250
2023-05-19T07:00:44.883Z,224.8628
2023-05-19T07:09:47.200Z,352.8409
2023-05-19T07:12:48.598Z,471.2216
2023-05-19T07:15:49.701Z,483.7500
2023-05-19T07:16:50.253Z,452.0454
2023-05-19T07:17:52.120Z,415.5000
2023-05-19T07:18:52.507Z,415.0994
2023-05-19T07:19:53.810Z,439.7965
2023-05-19T07:20:54.102Z,440.9738
2023-05-19T07:21:55.620Z,464.0625
2023-05-19T07:22:55.903Z,522.7415
2023-05-19T07:23:57.113Z,567.9878
2023-05-19T07:26:58.849Z,615.0426
2023-05-19T07:27:59.266Z,616.8324
2023-05-19T07:29:12.203Z,663.3750
2023-05-19T07:30:02.156Z,635.4730
2023-05-19T07:31:03.278Z,645.0852
2023-05-19T07:32:04.074Z,717.5000
2023-05-19T07:33:05.340Z,699.6250
2023-05-19T07:34:06.244Z,613.5000
2023-05-19T07:35:06.575Z,580.2699
2023-05-19T07:36:07.984Z,522.7500
2023-05-19T07:39:11.295Z,536.5000
2023-05-19T07:40:12.006Z,559.0483
2023-05-19T07:41:13.022Z,636.0085
2023-05-19T07:42:13.514Z,766.0714
2023-05-19T07:43:14.702Z,761.7500
2023-05-19T07:44:15.581Z,770.6250
2023-05-19T07:45:16.710Z,865.8665
2023-05-19T07:49:18.357Z,1057.8925
2023-05-19T07:50:19.310Z,1075.5255
2023-05-19T07:51:19.558Z,988.0824
2023-05-19T07:54:21.657Z,1128.3239
2023-05-19T07:55:22.106Z,1136.8892
2023-05-19T07:56:22.823Z,1134.8750
2023-05-19T07:57:23.207Z,1184.4460
2023-05-19T07:58:24.073Z,1176.7500
2023-05-19T07:59:25.427Z,1144.8750
2023-05-19T08:00:26.070Z,1073.6414
2023-05-19T08:01:27.134Z,1003.5000
2023-05-19T08:02:27.670Z,913.9346
2023-05-19T08:04:29.651Z,1007.2675
2023-05-19T08:05:30.303Z,959.8295
2023-05-19T08:06:30.867Z,810.5114
2023-05-19T08:07:31.354Z,711.0511
2023-05-19T08:12:33.891Z,536.3750
2023-05-19T08:13:34.669Z,564.0341
2023-05-19T08:14:34.962Z,583.3381
2023-05-19T08:15:35.478Z,617.3438
2023-05-19T08:16:36.021Z,709.6250
2023-05-19T08:17:36.928Z,814.8913
2023-05-19T08:18:37.766Z,790.8750
2023-05-19T08:21:38.737Z,715.5978
2023-05-19T08:22:38.971Z,781.2500
2023-05-19T08:23:39.902Z,801.3179
2023-05-19T08:24:40.705Z,808.1686
2023-05-19T08:25:42.358Z,758.1250
2023-05-19T08:26:43.232Z,701.7500
2023-05-19T08:27:44.022Z,673.1250
2023-05-19T08:28:44.969Z,678.3511
2023-05-19T08:29:45.977Z,673.9229
2023-05-19T08:33:47.502Z,803.5372
2023-05-19T08:34:47.883Z,778.9402
2023-05-19T08:35:47.922Z,753.6277
2023-05-19T08:36:49.060Z,728.2580
2023-05-19T08:37:49.155Z,711.0734
2023-05-19T08:38:50.117Z,724.6675
2023-05-19T08:39:51.327Z,749.6808
2023-05-19T08:40:51.735Z,790.6793
2023-05-19T08:52:19.439Z,1313.1383
2023-05-19T08:54:19.789Z,1296.2947
2023-05-19T08:55:20.777Z,1184.2421
2023-05-19T08:56:21.872Z,1198.2446
2023-05-19T08:57:22.927Z,1267.1809
2023-05-19T08:58:23.765Z,1325.9441
2023-05-19T08:59:24.600Z,1303.4103
2023-05-19T09:00:25.689Z,1298.8962
2023-05-19T09:01:25.938Z,1350.7500
2023-05-19T09:02:27.057Z,1332.8856
2023-05-19T09:03:28.691Z,1299.3750
2023-05-19T09:04:29.994Z,1260.0000
2023-05-19T09:05:29.465Z,1188.8750
2023-05-19T09:06:30.187Z,1198.1250
2023-05-19T09:07:31.459Z,1199.3218
2023-05-19T09:08:32.582Z,1137.9255
2023-05-19T09:09:32.753Z,1019.7147
2023-05-19T09:10:33.476Z,964.2500
2023-05-19T09:11:33.616Z,995.5027
2023-05-19T09:12:34.824Z,1115.3059
2023-05-19T09:13:36.007Z,1161.5027
2023-05-19T09:14:37.208Z,1063.2446
2023-05-19T09:32:51.180Z,855.3668
2023-05-19T09:33:51.426Z,847.2820
2023-05-19T09:34:52.551Z,858.9495
2023-05-19T09:35:52.684Z,883.2473
2023-05-19T09:36:53.861Z,925.4920
2023-05-19T09:37:54.132Z,1003.3288
2023-05-19T09:38:55.160Z,1140.9176
2023-05-19T09:39:56.112Z,1227.4468
2023-05-19T09:40:57.048Z,1227.3271
2023-05-19T09:41:58.065Z,1267.3005
2023-05-19T09:42:59.133Z,1329.1755
2023-05-19T09:44:00.189Z,1423.8431
2023-05-19T09:45:01.270Z,1413.1915
2023-05-19T09:46:02.288Z,1273.8829
2023-05-19T09:47:03.246Z,1189.0293
2023-05-19T09:48:04.171Z,1265.5054
2023-05-19T09:49:04.186Z,1319.7961
2023-05-19T09:50:05.089Z,1249.4681
2023-05-19T09:51:06.206Z,1265.1462
2023-05-19T09:52:07.214Z,1267.5399
2023-05-19T09:53:08.191Z,1257.7261
2023-05-19T09:54:08.298Z,1299.4973
2023-05-19T09:55:09.342Z,1335.5187
2023-05-19T09:56:09.365Z,1245.0815
2023-05-19T09:57:10.384Z,1118.5372
2023-05-19T10:20:28.893Z,1238.9362
2023-05-19T10:21:30.063Z,1135.8910
2023-05-19T10:22:31.270Z,1231.0372
2023-05-19T10:23:32.049Z,1412.1195
2023-05-19T10:24:33.162Z,1513.4840
2023-05-19T10:25:34.425Z,1585.7712
2023-05-19T10:26:34.331Z,1496.1277
2023-05-19T10:27:35.271Z,1484.1622
2023-05-19T10:28:36.190Z,1435.8112
2023-05-19T10:29:37.098Z,1404.6941
2023-05-19T10:30:38.150Z,1380.1595
2023-05-19T10:31:39.319Z,1378.7234
2023-05-19T10:32:39.397Z,1333.9810
2023-05-19T10:33:40.432Z,1304.0426
2023-05-19T10:34:41.277Z,1274.4813
2023-05-19T10:35:42.199Z,1266.8218
2023-05-19T10:36:42.266Z,1247.7500
2023-05-19T10:37:43.449Z,1213.5638
2023-05-19T10:38:44.527Z,1164.9734
2023-05-19T10:39:45.094Z,1096.5082
2023-05-19T10:40:46.093Z,1098.1915
2023-05-19T10:41:47.063Z,1091.2500
2023-05-19T10:42:46.928Z,1053.4647
2023-05-19T10:43:48.182Z,1038.3511
2023-05-19T10:44:48.733Z,1114.4197
2023-05-19T10:45:48.944Z,1202.6494
2023-05-19T10:46:49.474Z,1279.9320
2023-05-19T11:03:04.226Z,1644.2119
2023-05-19T11:04:05.989Z,1635.6782
2023-05-19T11:05:06.457Z,1485.1278
2023-05-19T11:06:07.481Z,1279.3883
2023-05-19T11:07:08.644Z,1067.7926
2023-05-19T11:08:09.668Z,983.6569
2023-05-19T11:09:10.695Z,975.5186
2023-05-19T11:10:10.895Z,1005.4076
2023-05-19T11:11:11.829Z,1049.3617
2023-05-19T11:12:12.754Z,1155.1595
2023-05-19T11:13:14.909Z,1289.2021
2023-05-19T11:14:14.737Z,1399.6467
2023-05-19T11:15:15.718Z,1537.0612
2023-05-19T11:16:16.889Z,1539.2155
2023-05-19T11:17:18.078Z,1471.4761
2023-05-19T11:18:18.785Z,1517.0000
2023-05-19T11:19:20.002Z,1664.2819
2023-05-19T11:20:20.109Z,1755.9783
2023-05-19T11:21:21.227Z,1766.8484
2023-05-19T11:22:22.152Z,1652.9122
2023-05-19T11:23:23.442Z,1500.4388
2023-05-19T11:24:23.448Z,1329.8011
2023-05-19T11:25:24.435Z,1155.9973
2023-05-19T11:26:25.271Z,1062.4069
2023-05-19T11:27:26.153Z,1010.2261
2023-05-19T11:28:26.992Z,961.1569
2023-05-19T11:29:27.858Z,940.0931
2023-05-19T11:30:28.849Z,992.3936
2023-05-19T11:31:29.777Z,1063.1250
2023-05-19T11:32:30.955Z,1131.4628
2023-05-19T11:33:30.813Z,1187.3641
2023-05-19T11:34:31.673Z,1265.9840
2023-05-19T11:35:35.444Z,1314.6941
2023-05-19T11:36:32.809Z,1447.5872
2023-05-19T11:37:33.576Z,1481.7687
2023-05-19T11:38:34.388Z,1489.6676
2023-05-19T11:39:35.401Z,1597.5000
2023-05-19T11:40:36.222Z,1716.7021
2023-05-19T11:41:37.267Z,2350.1729
2023-05-19T11:42:38.268Z,2470.8113
2023-05-19T11:43:39.275Z,2674.9868
2023-05-19T11:44:40.482Z,2627.2341
2023-05-19T11:45:41.188Z,2630.4653
2023-05-19T11:46:42.352Z,2376.3831
2023-05-19T11:48:00.895Z,2476.5559
2023-05-19T11:48:44.021Z,2421.4285
2023-05-19T11:49:44.862Z,2423.2979
2023-05-19T11:50:45.896Z,2504.5613
2023-05-19T11:51:47.015Z,2654.6409
2023-05-19T11:52:48.180Z,2489.4814
2023-05-19T11:53:48.381Z,2327.1604
2023-05-19T11:54:49.442Z,2368.6038
2023-05-19T11:55:50.932Z,2371.8352
2023-05-19T11:56:50.775Z,2437.9485
2023-05-19T11:58:02.903Z,2472.6064
2023-05-19T11:58:52.374Z,2577.7231
2023-05-19T11:59:53.392Z,2594.6809
2023-05-19T12:00:54.448Z,2616.2234
2023-05-19T12:01:54.612Z,2590.8015
2023-05-19T12:02:54.707Z,2613.0571
2023-05-19T12:03:54.796Z,2597.7717
2023-05-19T12:04:55.831Z,2570.6250
2023-05-19T12:05:56.618Z,2482.3660
2023-05-19T12:06:56.459Z,2385.1223
2023-05-19T12:07:57.674Z,2342.8723
2023-05-19T12:08:58.609Z,2278.1250
2023-05-19T12:09:59.670Z,2212.8989
2023-05-19T12:11:00.531Z,2168.1382
2023-05-19T12:12:01.493Z,2125.4124
2023-05-19T12:13:02.441Z,2042.7128
2023-05-19T12:14:03.411Z,1974.0160
2023-05-19T12:15:04.334Z,1940.3856
2023-05-19T12:16:05.402Z,1867.8590
2023-05-19T12:17:06.533Z,1837.8191
2023-05-19T12:18:07.748Z,1842.3671
2023-05-19T12:19:08.678Z,1840.4521
2023-05-19T12:20:09.916Z,1965.8777
2023-05-19T12:21:09.877Z,2115.7336
2023-05-19T12:22:10.058Z,2311.3860
2023-05-19T12:23:10.082Z,2214.4158
2023-05-19T12:24:10.878Z,2235.6382
2023-05-19T12:25:11.778Z,2324.0825
2023-05-19T12:26:11.881Z,2371.3044
2023-05-19T12:27:12.987Z,2382.1277
2023-05-19T12:28:14.808Z,2377.6995
2023-05-19T12:38:22.091Z,2400.9175
2023-05-19T12:39:22.985Z,2058.6304
2023-05-19T12:40:24.056Z,1992.9255
2023-05-19T12:41:25.228Z,1524.7418
2023-05-19T12:42:26.152Z,1419.0559
2023-05-19T12:43:27.320Z,1383.3910
2023-05-19T12:44:28.301Z,1414.6277
2023-05-19T12:45:29.174Z,1497.4468
2023-05-19T12:46:30.406Z,1600.8511
2023-05-19T12:47:31.353Z,1559.8005
2023-05-19T12:48:31.436Z,1395.2445
2023-05-19T12:49:32.518Z,1285.2527
2023-05-19T12:50:32.966Z,1234.5652
2023-05-19T12:51:33.494Z,1150.1902
2023-05-19T12:52:34.149Z,1114.6875
2023-05-19T12:53:35.080Z,1105.9707
2023-05-19T12:54:36.296Z,1083.2313
2023-05-19T12:57:37.457Z,1124.8777
2023-05-19T12:58:37.496Z,1185.1250
2023-05-19T12:59:38.992Z,1240.4464
2023-05-19T13:00:39.150Z,1325.1766
2023-05-19T13:01:40.581Z,1450.1729
2023-05-19T13:02:41.543Z,1532.7527
2023-05-19T13:03:42.060Z,1566.4402
2023-05-19T13:04:43.173Z,1632.2283
2023-05-19T13:05:44.218Z,1758.7101
2023-05-19T13:06:45.168Z,1911.6622
2023-05-19T13:07:45.979Z,1996.3962
2023-05-19T13:08:46.823Z,2020.0931
2023-05-19T13:09:47.055Z,1898.5598
2023-05-19T13:10:47.935Z,1665.9574
2023-05-19T13:11:48.835Z,1322.7128
2023-05-19T13:12:49.849Z,1086.9415
2023-05-19T13:13:49.962Z,884.2255
2023-05-19T13:14:51.660Z,734.1223
2023-05-19T13:15:51.191Z,632.5000
2023-05-19T13:16:52.275Z,576.2633
2023-05-19T13:17:53.273Z,543.2314
2023-05-19T13:18:53.670Z,513.7092
2023-05-19T13:19:54.382Z,496.7411
2023-05-19T13:20:55.314Z,507.6862
2023-05-19T13:21:56.467Z,533.4175
2023-05-19T13:22:57.418Z,566.4495
2023-05-19T13:23:58.486Z,618.0319
2023-05-19T13:24:59.442Z,710.5452
2023-05-19T13:26:00.053Z,817.4592
2023-05-19T13:27:00.263Z,893.2745
2023-05-19T13:28:01.560Z,955.6516
2023-05-19T13:29:02.502Z,1027.5798
2023-05-19T13:30:03.418Z,1069.7074
2023-05-19T13:31:04.425Z,1076.8207
2023-05-19T13:32:04.397Z,1045.7609
2023-05-19T13:33:05.652Z,982.8192
2023-05-19T13:34:06.204Z,916.6304
2023-05-19T13:35:07.004Z,840.0399
2023-05-19T13:36:07.378Z,752.0380
2023-05-19T13:48:16.355Z,919.5080
2023-05-19T13:49:17.360Z,986.4095
2023-05-19T13:50:18.344Z,1054.8671
2023-05-19T13:51:19.302Z,1115.6649
2023-05-19T13:52:20.380Z,1134.4548
2023-05-19T13:53:21.450Z,1123.6835
2023-05-19T13:54:22.677Z,1068.6304
2023-05-19T13:55:23.729Z,990.9575
2023-05-19T13:56:24.555Z,889.2287
2023-05-19T13:57:25.505Z,767.7527
2023-05-19T13:58:26.438Z,674.7606
2023-05-19T13:59:27.448Z,615.2792
2023-05-19T14:00:27.865Z,566.1250
2023-05-19T14:01:28.022Z,538.6549
2023-05-19T14:13:43.685Z,333.6429
2023-05-19T14:14:43.699Z,321.6033
2023-05-19T14:15:43.794Z,326.8750
2023-05-19T14:16:45.300Z,353.5372
2023-05-19T14:17:46.390Z,390.2793
2023-05-19T14:18:46.475Z,434.2256
2023-05-19T14:19:47.658Z,482.0745
2023-05-19T14:20:48.676Z,516.4229
2023-05-19T14:21:49.687Z,532.4601
2023-05-19T14:22:50.675Z,555.3192
2023-05-19T14:23:51.919Z,597.6862
2023-05-19T14:24:52.680Z,623.0585
2023-05-19T14:25:53.777Z,615.1595
2023-05-19T14:26:53.899Z,594.3324
2023-05-19T14:27:55.044Z,563.3378
2023-05-19T14:28:56.247Z,529.9468
2023-05-19T14:29:57.138Z,501.3431
2023-05-19T14:30:57.272Z,468.8315
2023-05-19T14:31:58.555Z,456.5825
2023-05-19T14:32:59.589Z,456.5825
2023-05-19T14:34:00.786Z,449.6410
2023-05-19T14:35:01.727Z,449.4016
2023-05-19T14:36:02.783Z,456.8218
2023-05-19T14:37:03.840Z,461.8484
2023-05-19T14:38:04.998Z,465.0798
2023-05-19T14:39:05.771Z,475.4920
2023-05-19T14:40:08.813Z,486.3830
2023-05-19T14:45:10.230Z,515.6658
2023-05-19T15:16:34.241Z,570.0000
2023-05-19T15:17:35.498Z,505.0532
2023-05-19T15:18:36.662Z,436.4761
2023-05-19T15:19:36.894Z,376.1413
2023-05-19T15:20:40.278Z,323.0000
2023-05-19T15:21:40.550Z,280.8831
2023-05-19T15:23:41.261Z,227.9920
2023-05-19T15:28:03.122Z,223.0000
2023-05-19T15:29:04.370Z,229.5000
2023-05-19T15:30:05.139Z,233.8210
2023-05-19T15:32:06.197Z,232.4148
2023-05-19T15:34:07.636Z,236.6169
2023-05-19T15:35:07.938Z,242.5142
2023-05-19T15:36:08.221Z,255.9375
2023-05-19T15:37:09.674Z,275.2415
2023-05-19T15:38:09.366Z,292.6308
2023-05-19T15:39:10.697Z,310.3533
2023-05-19T15:40:11.974Z,322.3750
2023-05-19T15:46:15.456Z,334.4318
2023-05-19T15:47:15.968Z,324.4602
2023-05-19T15:48:17.960Z,319.2500
2023-05-19T15:49:18.248Z,321.1250
2023-05-19T15:52:21.286Z,347.5000
2023-05-19T15:53:22.558Z,366.2500
2023-05-19T15:54:23.332Z,394.9273
2023-05-19T15:55:24.150Z,423.5756
2023-05-19T15:56:24.263Z,449.7443
2023-05-19T15:57:25.356Z,469.2500
2023-05-19T15:58:26.185Z,479.2756
2023-05-19T15:59:27.389Z,493.0000
2023-05-19T16:01:28.122Z,512.6420
2023-05-19T16:03:27.714Z,541.9176
2023-05-19T16:04:28.788Z,546.9034
2023-05-19T16:05:29.093Z,548.0000
2023-05-19T16:06:30.079Z,547.2869
2023-05-19T16:07:30.475Z,535.9091
2023-05-19T16:08:31.009Z,533.3750
2023-05-19T16:09:32.227Z,545.3693
2023-05-19T16:10:32.898Z,570.1705
2023-05-19T16:12:33.824Z,623.1977
2023-05-19T16:13:35.112Z,643.0000
2023-05-19T16:15:35.602Z,677.3011
2023-05-19T16:16:37.052Z,683.4375
2023-05-19T16:17:36.848Z,702.2301
2023-05-19T16:18:38.378Z,722.9348
2023-05-19T16:19:38.385Z,749.7714
2023-05-19T16:21:39.128Z,803.7500
2023-05-19T16:32:44.369Z,551.6250
2023-05-19T16:33:44.597Z,519.5000
2023-05-19T16:34:45.581Z,503.8210
2023-05-19T16:36:46.830Z,463.5511
2023-05-19T16:38:47.891Z,435.8152
2023-05-19T16:39:48.370Z,424.5597
2023-05-19T16:45:52.597Z,385.9517
2023-05-19T16:46:53.309Z,367.0640
2023-05-19T16:47:54.677Z,348.5000
2023-05-19T16:48:55.825Z,329.8750
2023-05-19T16:49:56.017Z,322.9796
2023-05-19T16:51:57.154Z,312.5544
2023-05-19T16:52:57.500Z,297.0000
2023-05-19T16:53:57.664Z,279.3750
2023-05-19T16:56:00.451Z,245.1250
2023-05-19T16:57:01.493Z,242.2585
2023-05-19T16:59:02.118Z,224.0217
2023-05-19T17:00:03.302Z,215.5000
2023-05-19T17:01:03.774Z,214.7727
2023-05-19T17:02:05.117Z,214.3750
2023-05-19T17:03:05.368Z,209.1477
2023-05-19T17:04:05.577Z,193.1676
2023-05-19T17:05:07.186Z,179.7500
2023-05-19T17:06:07.431Z,174.3750
2023-05-19T17:08:08.374Z,174.3750
2023-05-19T17:09:09.267Z,169.8750
2023-05-19T17:10:10.599Z,168.8750
2023-05-19T17:11:11.458Z,168.5000
2023-05-19T17:12:11.808Z,168.7500
2023-05-19T17:13:12.995Z,168.3750
2023-05-19T17:14:14.205Z,168.7500
2023-05-19T17:15:15.035Z,164.5312
2023-05-19T17:16:15.913Z,161.3750
2023-05-19T17:17:16.045Z,156.8750
2023-05-19T17:18:16.880Z,151.3750
2023-05-19T17:19:17.836Z,146.2500
2023-05-19T17:20:18.382Z,141.6477
2023-05-19T17:21:19.589Z,135.6392
2023-05-19T17:22:20.178Z,126.7500
2023-05-19T17:23:20.867Z,115.8239
2023-05-19T17:24:21.775Z,112.3750
2023-05-19T17:25:22.146Z,107.0028
2023-05-19T17:26:23.153Z,106.8750
2023-05-19T17:27:24.039Z,103.6250
2023-05-19T17:32:26.185Z,84.3750
2023-05-19T17:34:27.470Z,78.2500
2023-05-19T17:35:28.657Z,73.1250
2023-05-19T17:36:29.042Z,73.1250
2023-05-19T17:37:30.524Z,73.1250
2023-05-19T17:40:32.008Z,67.5000
2023-05-19T17:42:32.547Z,67.5000
2023-05-19T17:43:32.809Z,67.5000
2023-05-19T17:45:36.439Z,65.9103
2023-05-19T17:54:41.864Z,56.2500
2023-05-19T17:55:42.398Z,56.2500
2023-05-19T17:56:43.939Z,56.2500
2023-05-19T17:57:45.662Z,56.1277
2023-05-19T17:58:45.975Z,56.2500
2023-05-19T17:59:46.099Z,55.6108
2023-05-19T18:00:47.752Z,50.6250
2023-05-19T18:01:47.913Z,50.6250
2023-05-19T18:02:48.404Z,50.6250
2023-05-19T18:03:50.013Z,50.6250
2023-05-19T18:08:52.853Z,45.0000
2023-05-19T18:09:53.215Z,45.0000
2023-05-19T18:11:56.193Z,45.0000
2023-05-19T18:12:57.428Z,45.0000
2023-05-19T18:14:59.101Z,39.3750
2023-05-19T18:16:00.268Z,39.3750
2023-05-19T18:17:00.519Z,39.3750
2023-05-19T18:18:01.099Z,39.3750
2023-05-19T18:19:01.952Z,39.3750
2023-05-19T18:30:09.731Z,25.7500
2023-05-19T18:31:10.669Z,22.5000
2023-05-19T18:32:11.097Z,22.5000
2023-05-19T18:33:12.109Z,22.5000
2023-05-19T18:34:11.496Z,22.5000
2023-05-19T18:35:12.644Z,21.8750
2023-05-19T18:36:13.963Z,16.8750
2023-05-19T18:37:14.920Z,16.8750
2023-05-19T18:38:15.103Z,16.8750
2023-05-19T18:39:16.115Z,16.8750
2023-05-19T18:40:16.550Z,16.8750
2023-05-19T18:41:16.820Z,16.8750
2023-05-19T18:43:20.345Z,14.7962
2023-05-19T18:44:21.438Z,11.2500
2023-05-19T18:53:28.614Z,5.6250
2023-05-19T18:54:29.595Z,5.6250
2023-05-19T18:56:30.283Z,5.6250
2023-05-19T18:57:30.793Z,5.6250
2023-05-19T18:59:33.852Z,5.6250
2023-05-19T19:00:35.269Z,5.6250
2023-05-19T19:01:35.292Z,5.6250
2023-05-19T19:02:36.335Z,2.3750
2023-05-19T19:03:37.781Z,0.0000
2023-05-19T19:04:38.247Z,0.0000
2023-05-19T19:05:39.609Z,0.0000
2023-05-19T19:06:42.014Z,0.0000
2023-05-19T19:15:47.580Z,0.0000
2023-05-19T19:16:48.699Z,0.0000
2023-05-19T19:17:49.625Z,0.0000
2023-05-19T19:18:50.687Z,0.0000
2023-05-19T19:19:51.281Z,0.0000
2023-05-19T19:20:51.487Z,0.0000
2023-05-19T19:21:52.365Z,0.0000
2023-05-19T19:22:52.750Z,0.0000
2023-05-19T19:23:53.946Z,0.0000
2023-05-19T19:24:55.121Z,0.0000
2023-05-19T19:25:55.653Z,0.0000
2023-05-19T19:26:57.080Z,0.0000
2023-05-19T19:27:57.322Z,0.0000
2023-05-19T19:28:57.414Z,0.0000
2023-05-19T19:29:58.302Z,0.0000
2023-05-19T19:36:03.797Z,0.0000
2023-05-19T19:37:05.272Z,0.0000
2023-05-19T19:39:06.154Z,0.0000